Westport Harbour, New Zealand
Current Conditions -  °F | °C
As of 2:00 PM on Tuesday 25 Nov 2014 (Local Time) from NZCH Reporting Station
Broken Clouds Broken Clouds  
Wind Chill: 57°   Ceiling: 600
Heat Index: 57°   Visibility: 6mi
Dew Point: 57°   Wind: 13mph
Humidity: 100%   Direction: 50°NE
Pressure: 29.65"   Gusts: NA
Location:  41.75°S, 171.6°E
Report Text: NZCH 250200Z AUTO 05011KT 9999 BKN006/// BKN080/// BKN100///14/14 Q1004 BECMG SCT008
Loading
Personal Weather Stations






























Interactive Weather Map New forecast layout! Learn more

10-Day Weather Forecast

Advertisements
Track Severe Weather on mobile